Garland City, Arkansas
Current Conditions -  °F | °C
As of 11:53 AM on Friday 28 Nov 2014 (Local Time) from KTXK Reporting Station
Clear Clear  
Wind Chill: 14°   Ceiling: Unl
Heat Index: 14°   Visibility: 10mi
Dew Point:   Wind: 12mph
Humidity: 44%   Direction: 200°SSW
Pressure: 30.25"   Gusts: NA
Location:  33.35°N, 93.75°W
Report Text: KTXK 281753Z 20010KT 10SM CLR 14/02 A3025 RMK AO2 SLP241 T01390017 10139 20006 58033
Loading
Personal Weather Stations






























Interactive Weather Map New forecast layout! Learn more

10-Day Weather Forecast

Advertisements
Track Severe Weather on mobile